createdAt,value
2022-08-19T00:00:13.460Z,8.20
2022-08-19T00:03:01.735Z,9.80
2022-08-19T00:05:30.148Z,8.70
2022-08-19T00:07:58.586Z,9.10
2022-08-19T00:10:27.134Z,8.70
2022-08-19T00:12:55.466Z,9.00
2022-08-19T00:15:23.813Z,9.10
2022-08-19T00:17:52.171Z,8.90
2022-08-19T00:20:22.442Z,9.00
2022-08-19T00:22:51.162Z,8.30
2022-08-19T00:25:19.561Z,9.10
2022-08-19T00:28:00.434Z,8.60
2022-08-19T00:30:29.663Z,8.40
2022-08-19T00:32:59.074Z,8.20
2022-08-19T00:35:30.925Z,9.20
2022-08-19T00:37:59.464Z,8.90
2022-08-19T00:40:27.821Z,8.50
2022-08-19T00:42:56.096Z,8.60
2022-08-19T00:45:29.222Z,8.90
2022-08-19T00:47:57.591Z,10.60
2022-08-19T00:50:25.983Z,7.80
2022-08-19T00:52:54.522Z,9.00
2022-08-19T00:55:29.032Z,8.90
2022-08-19T00:58:08.499Z,8.20
2022-08-19T01:00:38.345Z,8.60
2022-08-19T01:03:14.902Z,8.20
2022-08-19T01:05:46.831Z,9.10
2022-08-19T01:08:18.063Z,8.60
2022-08-19T01:10:55.435Z,8.20
2022-08-19T01:13:30.264Z,8.40
2022-08-19T01:16:21.688Z,8.80
2022-08-19T01:18:51.028Z,8.70
2022-08-19T01:21:26.254Z,9.10
2022-08-19T01:23:54.724Z,9.40
2022-08-19T01:26:26.312Z,9.00
2022-08-19T01:29:00.689Z,8.00
2022-08-19T01:31:33.451Z,8.90
2022-08-19T01:34:03.110Z,9.60
2022-08-19T01:36:42.921Z,9.20
2022-08-19T01:39:22.859Z,8.10
2022-08-19T01:41:55.303Z,9.00
2022-08-19T01:44:25.078Z,9.20
2022-08-19T01:46:53.503Z,9.40
2022-08-19T01:49:26.077Z,8.40
2022-08-19T01:51:55.750Z,8.50
2022-08-19T01:54:27.524Z,8.80
2022-08-19T01:57:07.802Z,9.30
2022-08-19T01:59:37.587Z,10.20
2022-08-19T02:02:09.428Z,9.70
2022-08-19T02:04:39.126Z,8.40
2022-08-19T02:07:09.145Z,9.10
2022-08-19T02:09:37.707Z,9.20
2022-08-19T02:12:10.166Z,9.60
2022-08-19T02:14:38.506Z,9.30
2022-08-19T02:17:07.215Z,9.20
2022-08-19T02:19:35.763Z,9.60
2022-08-19T02:22:07.942Z,9.60
2022-08-19T02:24:36.196Z,10.90
2022-08-19T02:27:05.937Z,10.00
2022-08-19T02:29:34.344Z,10.20
2022-08-19T02:32:03.036Z,8.60
2022-08-19T02:34:31.471Z,9.90
2022-08-19T02:37:03.596Z,10.10
2022-08-19T02:39:32.641Z,11.30
2022-08-19T02:42:03.052Z,11.50
2022-08-19T02:44:32.094Z,10.80
2022-08-19T02:47:00.488Z,9.90
2022-08-19T02:49:28.819Z,10.50
2022-08-19T02:51:57.087Z,11.10
2022-08-19T02:54:25.388Z,12.30
2022-08-19T02:56:53.746Z,10.10
2022-08-19T02:59:22.986Z,11.20
2022-08-19T03:01:51.560Z,10.40
2022-08-19T03:04:20.527Z,11.00
2022-08-19T03:06:50.292Z,11.40
2022-08-19T03:09:20.980Z,11.10
2022-08-19T03:11:52.037Z,11.20
2022-08-19T03:14:21.596Z,10.50
2022-08-19T03:16:53.585Z,11.40
2022-08-19T03:19:24.845Z,11.10
2022-08-19T03:21:53.645Z,11.80
2022-08-19T03:24:22.711Z,10.10
2022-08-19T03:26:58.698Z,11.80
2022-08-19T03:29:31.786Z,12.00
2022-08-19T03:32:04.762Z,11.30
2022-08-19T03:34:35.808Z,11.30
2022-08-19T03:37:10.640Z,12.50
2022-08-19T03:39:41.108Z,12.90
2022-08-19T03:42:47.863Z,13.60
2022-08-19T03:44:59.436Z,12.80
2022-08-19T03:47:27.807Z,13.60
2022-08-19T03:49:56.595Z,13.10
2022-08-19T03:52:24.890Z,13.00
2022-08-19T03:54:53.257Z,14.10
2022-08-19T03:57:21.634Z,13.90
2022-08-19T04:00:12.978Z,13.50
2022-08-19T04:02:58.178Z,12.30
2022-08-19T04:05:30.263Z,12.50
2022-08-19T04:07:59.862Z,12.20
2022-08-19T04:10:29.441Z,12.80
2022-08-19T04:12:57.828Z,12.50
2022-08-19T04:15:26.120Z,13.40
2022-08-19T04:17:54.424Z,12.80
2022-08-19T04:20:22.782Z,12.50
2022-08-19T04:22:51.023Z,14.00
2022-08-19T04:25:19.320Z,13.50
2022-08-19T04:27:47.955Z,13.20
2022-08-19T04:30:16.412Z,13.40
2022-08-19T04:32:44.893Z,12.20
2022-08-19T04:35:17.621Z,13.10
2022-08-19T04:37:47.636Z,12.60
2022-08-19T04:40:35.009Z,13.00
2022-08-19T04:43:03.392Z,13.70
2022-08-19T04:45:39.573Z,12.70
2022-08-19T04:48:27.262Z,13.60
2022-08-19T04:50:58.687Z,13.60
2022-08-19T04:53:37.980Z,13.20
2022-08-19T04:56:12.878Z,13.00
2022-08-19T04:58:44.046Z,13.30
2022-08-19T05:01:20.343Z,14.10
2022-08-19T05:03:50.192Z,12.60
2022-08-19T05:06:21.800Z,13.00
2022-08-19T05:08:51.024Z,13.40
2022-08-19T05:11:29.422Z,13.60
2022-08-19T05:13:58.876Z,14.90
2022-08-19T05:16:28.712Z,13.40
2022-08-19T05:19:15.870Z,13.40
2022-08-19T05:22:03.876Z,14.50
2022-08-19T05:24:35.187Z,13.20
2022-08-19T05:27:06.651Z,15.50
2022-08-19T05:29:36.578Z,13.50
2022-08-19T05:32:09.288Z,13.50
2022-08-19T05:34:41.661Z,14.30
2022-08-19T05:37:10.106Z,13.70
2022-08-19T05:39:39.114Z,14.70
2022-08-19T05:42:11.255Z,14.00
2022-08-19T05:44:45.236Z,13.50
2022-08-19T05:47:15.978Z,14.00
2022-08-19T05:49:44.982Z,13.80
2022-08-19T05:52:19.561Z,14.20
2022-08-19T05:54:56.715Z,13.60
2022-08-19T05:57:25.828Z,13.30
2022-08-19T05:59:58.218Z,13.40
2022-08-19T06:02:29.344Z,13.90
2022-08-19T06:04:57.694Z,13.70
2022-08-19T06:07:26.695Z,13.90
2022-08-19T06:10:00.192Z,12.90
2022-08-19T06:12:33.981Z,13.10
2022-08-19T06:15:12.606Z,14.60
2022-08-19T06:17:42.706Z,13.50
2022-08-19T06:20:15.903Z,15.20
2022-08-19T06:22:47.088Z,12.90
2022-08-19T06:25:15.874Z,13.00
2022-08-19T06:28:11.537Z,13.00
2022-08-19T06:30:34.137Z,12.70
2022-08-19T06:33:02.485Z,13.10
2022-08-19T06:35:30.924Z,12.40
2022-08-19T06:38:00.600Z,12.40
2022-08-19T06:40:28.878Z,11.50
2022-08-19T06:42:58.611Z,11.40
2022-08-19T06:45:34.560Z,11.50
2022-08-19T06:48:04.160Z,11.70
2022-08-19T06:50:32.497Z,11.60
2022-08-19T06:53:04.370Z,11.60
2022-08-19T06:55:33.413Z,12.00
2022-08-19T06:58:06.143Z,10.40
2022-08-19T07:00:34.831Z,11.30
2022-08-19T07:03:07.774Z,11.20
2022-08-19T07:05:45.827Z,11.50
2022-08-19T07:08:15.401Z,9.80
2022-08-19T07:10:50.206Z,10.30
2022-08-19T07:13:18.677Z,10.30
2022-08-19T07:15:47.972Z,10.90
2022-08-19T07:18:16.608Z,9.20
2022-08-19T07:20:45.700Z,8.20
2022-08-19T07:23:15.962Z,7.30
2022-08-19T07:25:53.067Z,9.30
2022-08-19T07:28:23.985Z,7.60
2022-08-19T07:30:54.024Z,8.40
2022-08-19T07:33:23.973Z,7.50
2022-08-19T07:35:56.397Z,8.30
2022-08-19T07:38:25.639Z,7.80
2022-08-19T07:40:55.522Z,7.70
2022-08-19T07:43:34.894Z,7.70
2022-08-19T07:46:04.436Z,8.40
2022-08-19T07:48:33.549Z,7.10
2022-08-19T07:51:07.284Z,7.50
2022-08-19T07:53:51.777Z,7.80
2022-08-19T07:56:21.896Z,7.90
2022-08-19T07:58:53.043Z,7.00
2022-08-19T08:01:27.490Z,5.90
2022-08-19T08:07:19.504Z,6.50
2022-08-19T08:09:50.257Z,6.50
2022-08-19T08:12:34.707Z,6.70
2022-08-19T08:15:12.740Z,5.50
2022-08-19T08:17:49.025Z,5.70
2022-08-19T08:20:19.675Z,6.20
2022-08-19T08:23:07.527Z,5.40
2022-08-19T08:25:37.415Z,6.40
2022-08-19T08:28:06.713Z,6.90
2022-08-19T08:33:39.544Z,6.80
2022-08-19T08:36:14.694Z,5.80
2022-08-19T08:41:32.947Z,6.10
2022-08-19T08:56:26.441Z,6.70
2022-08-19T08:59:36.910Z,7.50
2022-08-19T09:02:41.869Z,7.10
2022-08-19T09:05:16.868Z,6.90
2022-08-19T09:11:42.624Z,6.40
2022-08-19T09:14:56.658Z,6.40
2022-08-19T09:17:32.066Z,6.10
2022-08-19T09:20:24.019Z,5.60
2022-08-19T09:22:54.745Z,6.30
2022-08-19T09:25:24.779Z,5.60
2022-08-19T09:28:02.846Z,5.30
2022-08-19T09:30:43.654Z,5.60
2022-08-19T09:33:13.594Z,6.20
2022-08-19T09:35:49.884Z,5.70
2022-08-19T09:38:22.783Z,6.20
2022-08-19T09:40:51.338Z,5.50
2022-08-19T09:43:33.237Z,5.70
2022-08-19T09:46:10.432Z,5.60
2022-08-19T09:48:41.516Z,6.00
2022-08-19T09:51:18.507Z,5.40
2022-08-19T09:53:52.046Z,5.50
2022-08-19T09:56:23.583Z,5.30
2022-08-19T09:58:52.957Z,6.00
2022-08-19T10:01:27.083Z,5.00
2022-08-19T10:04:00.458Z,5.90
2022-08-19T10:06:43.973Z,5.70
2022-08-19T10:09:18.633Z,5.40
2022-08-19T10:12:04.540Z,5.50
2022-08-19T10:14:35.637Z,5.70
2022-08-19T10:17:17.432Z,6.30
2022-08-19T10:22:25.713Z,4.70
2022-08-19T10:24:56.674Z,5.30
2022-08-19T10:27:26.383Z,5.00
2022-08-19T10:29:55.244Z,5.50
2022-08-19T10:32:34.256Z,5.90
2022-08-19T10:35:09.353Z,9.40
2022-08-19T10:37:42.295Z,5.10
2022-08-19T10:40:28.982Z,6.10
2022-08-19T10:42:57.537Z,5.40
2022-08-19T10:45:32.390Z,4.80
2022-08-19T10:48:01.225Z,6.10
2022-08-19T10:50:49.924Z,5.20
2022-08-19T10:53:18.310Z,5.40
2022-08-19T10:56:05.364Z,4.80
2022-08-19T10:58:33.768Z,5.30
2022-08-19T11:01:02.315Z,5.40
2022-08-19T11:03:31.638Z,5.30
2022-08-19T11:06:07.752Z,4.30
2022-08-19T11:08:38.725Z,3.90
2022-08-19T11:11:09.103Z,4.50
2022-08-19T11:13:41.230Z,3.90
2022-08-19T11:16:14.369Z,3.60
2022-08-19T11:18:55.267Z,4.00
2022-08-19T11:21:34.001Z,3.20
2022-08-19T11:24:07.826Z,3.70
2022-08-19T11:26:41.912Z,3.60
2022-08-19T11:29:14.239Z,3.90
2022-08-19T11:31:47.100Z,4.30
2022-08-19T11:34:23.812Z,3.70
2022-08-19T11:36:56.009Z,3.90
2022-08-19T11:39:26.556Z,3.30
2022-08-19T11:41:55.346Z,4.00
2022-08-19T11:44:23.690Z,4.50
2022-08-19T11:46:53.951Z,3.80
2022-08-19T11:49:22.369Z,4.00
2022-08-19T11:51:51.745Z,4.10
2022-08-19T11:54:22.418Z,3.60
2022-08-19T11:56:50.887Z,3.30
2022-08-19T11:59:19.256Z,3.30
2022-08-19T12:01:47.576Z,4.10
2022-08-19T12:04:15.909Z,4.50
2022-08-19T12:06:46.956Z,3.90
2022-08-19T12:09:16.544Z,3.80
2022-08-19T12:11:45.084Z,4.40
2022-08-19T12:14:19.948Z,3.30
2022-08-19T12:16:49.050Z,3.60
2022-08-19T12:19:21.870Z,4.10
2022-08-19T12:21:54.442Z,3.90
2022-08-19T12:24:24.472Z,4.20
2022-08-19T12:26:54.444Z,4.40
2022-08-19T12:29:25.108Z,3.20
2022-08-19T12:31:53.434Z,3.30
2022-08-19T12:34:23.110Z,3.20
2022-08-19T12:36:51.525Z,3.50
2022-08-19T12:39:19.902Z,3.60
2022-08-19T12:41:54.047Z,3.60
2022-08-19T12:44:29.357Z,3.10
2022-08-19T12:47:06.140Z,3.60
2022-08-19T12:49:53.187Z,3.30
2022-08-19T12:52:28.091Z,3.20
2022-08-19T12:54:58.274Z,3.20
2022-08-19T12:57:32.306Z,2.90
2022-08-19T13:00:14.439Z,3.10
2022-08-19T13:02:48.302Z,3.40
2022-08-19T13:05:26.772Z,3.20
2022-08-19T13:08:01.123Z,2.90
2022-08-19T13:10:35.856Z,3.00
2022-08-19T13:13:10.907Z,3.10
2022-08-19T13:15:42.487Z,3.10
2022-08-19T13:18:13.580Z,3.10
2022-08-19T13:20:42.424Z,2.50
2022-08-19T13:23:20.964Z,3.60
2022-08-19T13:26:03.347Z,3.50
2022-08-19T13:28:57.402Z,3.30
2022-08-19T13:31:51.929Z,2.80
2022-08-19T13:34:40.407Z,3.90
2022-08-19T13:37:08.894Z,3.30
2022-08-19T13:39:37.942Z,4.60
2022-08-19T13:42:08.256Z,3.20
2022-08-19T13:44:36.792Z,4.20
2022-08-19T13:47:07.905Z,3.10
2022-08-19T13:49:37.414Z,3.50
2022-08-19T13:52:06.856Z,3.50
2022-08-19T13:54:35.318Z,3.60
2022-08-19T13:57:03.999Z,3.70
2022-08-19T13:59:33.531Z,4.80
2022-08-19T14:02:02.135Z,4.60
2022-08-19T14:04:30.482Z,3.40
2022-08-19T14:06:58.876Z,3.80
2022-08-19T14:09:27.201Z,4.60
2022-08-19T14:11:56.359Z,5.60
2022-08-19T14:14:24.739Z,4.10
2022-08-19T14:16:53.098Z,3.50
2022-08-19T14:19:22.357Z,3.30
2022-08-19T14:21:51.947Z,3.80
2022-08-19T14:24:20.412Z,3.80
2022-08-19T14:26:48.995Z,3.90
2022-08-19T14:29:17.665Z,3.30
2022-08-19T14:31:46.081Z,3.80
2022-08-19T14:34:14.513Z,3.60
2022-08-19T14:36:43.086Z,3.80
2022-08-19T14:39:11.608Z,3.30
2022-08-19T14:41:42.991Z,4.10
2022-08-19T14:44:13.481Z,4.10
2022-08-19T14:46:41.885Z,3.60
2022-08-19T14:49:20.594Z,3.70
2022-08-19T14:51:58.049Z,3.90
2022-08-19T14:54:26.704Z,3.30
2022-08-19T14:56:58.826Z,3.60
2022-08-19T14:59:28.292Z,4.50
2022-08-19T15:01:56.645Z,3.30
2022-08-19T15:04:25.041Z,4.10
2022-08-19T15:06:53.351Z,4.10
2022-08-19T15:09:21.731Z,4.60
2022-08-19T15:11:51.721Z,4.20
2022-08-19T15:14:21.971Z,3.70
2022-08-19T15:16:50.566Z,4.50
2022-08-19T15:19:19.455Z,3.90
2022-08-19T15:21:47.870Z,3.30
2022-08-19T15:24:16.262Z,3.80
2022-08-19T15:26:45.064Z,4.10
2022-08-19T15:29:16.774Z,4.30
2022-08-19T15:31:46.037Z,3.70
2022-08-19T15:34:18.022Z,4.40
2022-08-19T15:36:46.317Z,5.70
2022-08-19T15:39:14.713Z,4.50
2022-08-19T15:41:43.332Z,4.30
2022-08-19T15:44:18.527Z,4.40
2022-08-19T15:46:49.375Z,3.60
2022-08-19T15:49:19.474Z,5.30
2022-08-19T15:51:51.790Z,4.30
2022-08-19T15:54:21.953Z,4.20
2022-08-19T15:57:10.635Z,5.30
2022-08-19T16:00:00.099Z,6.80
2022-08-19T16:02:53.668Z,6.30
2022-08-19T16:05:45.291Z,8.20
2022-08-19T16:08:13.813Z,8.60
2022-08-19T16:10:42.686Z,8.10
2022-08-19T16:13:11.016Z,9.30
2022-08-19T16:15:41.986Z,9.10
2022-08-19T16:18:10.659Z,8.50
2022-08-19T16:20:39.333Z,9.60
2022-08-19T16:23:08.002Z,10.10
2022-08-19T16:25:36.579Z,10.80
2022-08-19T16:28:07.231Z,11.00
2022-08-19T16:30:41.790Z,10.80
2022-08-19T16:33:10.975Z,13.80
2022-08-19T16:35:39.640Z,12.00
2022-08-19T16:38:08.048Z,12.80
2022-08-19T16:40:36.438Z,18.00
2022-08-19T16:43:05.432Z,12.30
2022-08-19T16:45:34.089Z,12.30
2022-08-19T16:48:03.929Z,11.20
2022-08-19T16:50:48.680Z,12.10
2022-08-19T16:53:22.015Z,11.90
2022-08-19T16:55:50.900Z,12.20
2022-08-19T16:58:19.951Z,10.90
2022-08-19T17:00:50.137Z,11.50
2022-08-19T17:03:35.941Z,12.30
2022-08-19T17:06:20.608Z,12.00
2022-08-19T17:08:58.755Z,13.70
2022-08-19T17:11:37.097Z,11.40
2022-08-19T17:14:06.271Z,12.20
2022-08-19T17:16:40.418Z,11.80
2022-08-19T17:19:08.922Z,12.20
2022-08-19T17:21:40.524Z,22.00
2022-08-19T17:24:09.089Z,12.90
2022-08-19T17:26:38.156Z,11.60
2022-08-19T17:29:06.425Z,12.70
2022-08-19T17:31:35.266Z,33.80
2022-08-19T17:34:04.580Z,13.00
2022-08-19T17:36:34.050Z,11.80
2022-08-19T17:39:05.291Z,13.10
2022-08-19T17:41:34.603Z,11.70
2022-08-19T17:44:04.260Z,12.20
2022-08-19T17:46:34.085Z,12.30
2022-08-19T17:49:02.854Z,12.10
2022-08-19T17:51:33.974Z,10.90
2022-08-19T17:54:05.627Z,12.50
2022-08-19T17:56:34.472Z,25.20
2022-08-19T17:59:02.759Z,16.10
2022-08-19T18:01:45.814Z,14.20
2022-08-19T18:04:22.460Z,12.30
2022-08-19T18:06:53.368Z,12.80
2022-08-19T18:09:27.088Z,20.70
2022-08-19T18:11:57.902Z,37.70
2022-08-19T18:14:34.575Z,18.30
2022-08-19T18:17:12.786Z,13.90
2022-08-19T18:19:43.960Z,13.30
2022-08-19T18:22:27.356Z,14.20
2022-08-19T18:24:57.836Z,14.20
2022-08-19T18:27:27.783Z,14.70
2022-08-19T18:29:59.409Z,14.10
2022-08-19T18:32:34.490Z,13.70
2022-08-19T18:37:34.193Z,14.60
2022-08-19T18:40:21.492Z,13.60
2022-08-19T18:43:08.803Z,15.50
2022-08-19T18:45:58.203Z,12.60
2022-08-19T18:48:45.827Z,14.40
2022-08-19T18:51:16.346Z,15.80
2022-08-19T18:53:48.609Z,16.90
2022-08-19T18:56:19.988Z,15.10
2022-08-19T18:58:50.452Z,15.20
2022-08-19T19:01:29.765Z,17.10
2022-08-19T19:04:03.994Z,15.90
2022-08-19T19:06:40.137Z,15.00
2022-08-19T19:09:19.633Z,12.70
2022-08-19T19:11:55.631Z,11.70
2022-08-19T19:14:48.559Z,9.40
2022-08-19T19:17:25.738Z,7.60
2022-08-19T19:19:54.290Z,7.60
2022-08-19T19:22:24.082Z,8.70
2022-08-19T19:24:56.122Z,7.10
2022-08-19T19:27:24.408Z,8.30
2022-08-19T19:29:53.162Z,8.30
2022-08-19T19:32:27.142Z,7.70
2022-08-19T19:34:55.752Z,8.40
2022-08-19T19:37:24.109Z,7.60
2022-08-19T19:39:52.556Z,7.90
2022-08-19T19:42:23.751Z,8.80
2022-08-19T19:44:55.771Z,7.40
2022-08-19T19:47:28.545Z,7.80
2022-08-19T19:50:14.228Z,8.00
2022-08-19T19:52:46.683Z,8.00
2022-08-19T19:55:18.128Z,8.60
2022-08-19T19:57:49.865Z,8.10
2022-08-19T20:00:19.122Z,8.60
2022-08-19T20:02:50.662Z,8.60
2022-08-19T20:05:21.689Z,7.70
2022-08-19T20:08:11.788Z,8.40
2022-08-19T20:10:42.370Z,7.90
2022-08-19T20:13:15.420Z,8.10
2022-08-19T20:15:43.979Z,7.10
2022-08-19T20:18:14.514Z,8.10
2022-08-19T20:20:45.893Z,11.60
2022-08-19T20:23:14.430Z,8.20
2022-08-19T20:25:43.739Z,7.50
2022-08-19T20:28:12.616Z,7.60
2022-08-19T20:30:45.578Z,7.60
2022-08-19T20:33:15.022Z,7.90
2022-08-19T20:35:45.091Z,7.00
2022-08-19T20:38:13.989Z,8.60
2022-08-19T20:43:59.829Z,7.80
2022-08-19T20:56:32.640Z,10.80
2022-08-19T21:00:36.475Z,12.50
2022-08-19T21:03:05.534Z,7.50
2022-08-19T21:05:33.860Z,9.10
2022-08-19T21:08:03.762Z,7.20
2022-08-19T21:10:32.573Z,9.60
2022-08-19T21:13:03.770Z,8.80
2022-08-19T21:15:32.341Z,12.40
2022-08-19T21:18:00.749Z,10.90
2022-08-19T21:20:29.113Z,9.30
2022-08-19T21:22:57.416Z,8.70
2022-08-19T21:25:25.939Z,8.60
2022-08-19T21:27:54.340Z,8.90
2022-08-19T21:30:23.102Z,8.20
2022-08-19T21:32:52.856Z,8.00
2022-08-19T21:35:23.749Z,8.20
2022-08-19T21:37:52.391Z,8.20
2022-08-19T21:40:21.323Z,8.10
2022-08-19T21:42:49.647Z,8.60
2022-08-19T21:45:19.180Z,7.80
2022-08-19T21:47:47.513Z,8.90
2022-08-19T21:50:20.977Z,9.40
2022-08-19T21:52:49.400Z,9.10
2022-08-19T21:55:18.108Z,8.50
2022-08-19T22:01:30.368Z,8.80
2022-08-19T22:04:08.294Z,9.40
2022-08-19T22:06:36.662Z,8.90
2022-08-19T22:09:05.488Z,9.60
2022-08-19T22:11:34.677Z,9.90
2022-08-19T22:14:04.319Z,9.70
2022-08-19T22:16:33.060Z,9.60
2022-08-19T22:19:01.439Z,8.90
2022-08-19T22:21:35.592Z,8.70
2022-08-19T22:24:15.941Z,9.80
2022-08-19T22:26:44.360Z,9.40
2022-08-19T22:29:15.724Z,9.60
2022-08-19T22:31:45.687Z,8.50
2022-08-19T22:34:23.684Z,9.90
2022-08-19T22:36:52.800Z,9.40
2022-08-19T22:39:22.683Z,9.90
2022-08-19T22:41:51.077Z,8.80
2022-08-19T22:44:19.877Z,9.70
2022-08-19T22:46:49.418Z,9.30
2022-08-19T23:07:05.511Z,9.10
2022-08-19T23:09:34.063Z,8.40
2022-08-19T23:12:05.286Z,9.00
2022-08-19T23:14:36.474Z,8.20
2022-08-19T23:17:05.872Z,6.70
2022-08-19T23:19:34.680Z,7.60
2022-08-19T23:22:05.175Z,7.80
2022-08-19T23:24:33.570Z,8.00
2022-08-19T23:27:23.032Z,8.60
2022-08-19T23:30:11.777Z,8.70
2022-08-19T23:32:40.843Z,9.10
2022-08-19T23:35:09.654Z,8.60
2022-08-19T23:37:38.213Z,8.60
2022-08-19T23:40:09.990Z,8.90
2022-08-19T23:42:43.070Z,8.30
2022-08-19T23:45:13.388Z,7.90
2022-08-19T23:47:42.375Z,8.10
2022-08-19T23:50:11.626Z,8.20
2022-08-19T23:52:53.452Z,7.80
